This is the latest recevied weather packets stored in our database for station/object BMCB-11. If no packets are shown the sender has not sent any weather packets the latest 10 day(s).
| Time | Temp. | Humidity | Pressure | Rain* | Wind** | Luminosity | Snow |
|---|---|---|---|---|---|---|---|
| 1777912247 | 14.44° C | 94% | 1012.7 hPa | 6.1 mm | - | 28 W/m² | - |
| 1777909823 | 16.11° C | 83% | 1012.4 hPa | 0.51 mm | - | 40 W/m² | - |
| 1777909246 | 16.11° C | 83% | 1012.4 hPa | 0 mm | - | 70 W/m² | - |
| 1777901448 | 18.33° C | 74% | 1013.1 hPa | 0 mm | - | 322 W/m² | - |
| 1777899647 | 17.78° C | 76% | 1013.4 hPa | 0 mm | - | 600 W/m² | - |
| 1777898448 | 17.78° C | 81% | 1013.5 hPa | 0 mm | - | 576 W/m² | - |
| 1777893047 | 15.56° C | 88% | 1014.2 hPa | 0 mm | - | 306 W/m² | - |
| 1777892449 | 15.56° C | 89% | 1014.3 hPa | 0 mm | - | 356 W/m² | - |
| 1777885816 | 13.89° C | 96% | 1014.4 hPa | 0 mm | - | 162 W/m² | - |
| 1777883416 | 13.89° C | 97% | 1014.4 hPa | 0 mm | - | 114 W/m² | - |
| 1777875621 | 12.78° C | 10% | 1013.4 hPa | 0 mm | - | - | - |
| 1777875017 | 12.22° C | 10% | 1013.3 hPa | 0 mm | - | - | - |
| 1777869618 | 10.56° C | 10% | 1013 hPa | 0 mm | - | - | - |
| 1777864219 | 11.67° C | 10% | 1013.1 hPa | 0 mm | - | - | - |
| 1777856422 | 11.67° C | 97% | 1012.2 hPa | 0.25 mm | - | 0 W/m² | - |
| 1777855821 | 11.67° C | 97% | 1012.3 hPa | 0.76 mm | - | 0 W/m² | - |
| 1777854018 | 12.22° C | 97% | 1012.5 hPa | 2.29 mm | - | 0 W/m² | - |
| 1777850421 | 12.78° C | 94% | 1012.7 hPa | 0.51 mm | - | 0 W/m² | - |
| 1777848621 | 13.33° C | 95% | 1012.7 hPa | 0 mm | - | 0 W/m² | - |
| 1777843223 | 13.33° C | 97% | 1012.5 hPa | 0 mm | - | 0 W/m² | - |
| 1777842048 | 13.33° C | 96% | 1012.6 hPa | 0 mm | - | 0 W/m² | - |
| 1777840222 | 13.33° C | 98% | 1012.6 hPa | 0 mm | - | 0 W/m² | - |
| 1777839623 | 13.33° C | 98% | 1012.5 hPa | 0 mm | - | 0 W/m² | - |
| 1777837822 | 13.33° C | 98% | 1012.5 hPa | 0 mm | - | 0 W/m² | - |
| 1777836648 | 13.33° C | 99% | 1012.3 hPa | 0 mm | - | 0 W/m² | - |
* Rain latest hour (hover to see other rain measurements)
** Current wind speed in m/s (hover to see current wind gust speed)